createdAt,value
2017-08-25T00:01:07.394Z,18.40
2017-08-25T00:03:34.873Z,18.40
2017-08-25T00:06:02.359Z,18.40
2017-08-25T00:08:29.837Z,18.30
2017-08-25T00:10:57.281Z,18.30
2017-08-25T00:13:24.735Z,18.30
2017-08-25T00:15:52.237Z,18.20
2017-08-25T00:18:19.693Z,18.20
2017-08-25T00:20:47.901Z,18.20
2017-08-25T00:23:15.369Z,18.10
2017-08-25T00:25:42.858Z,18.20
2017-08-25T00:28:10.310Z,18.20
2017-08-25T00:30:37.797Z,18.10
2017-08-25T00:33:05.293Z,18.10
2017-08-25T00:35:32.786Z,18.10
2017-08-25T00:38:00.266Z,18.00
2017-08-25T00:40:27.823Z,18.00
2017-08-25T00:42:55.378Z,18.00
2017-08-25T00:45:22.829Z,18.00
2017-08-25T00:47:50.314Z,18.00
2017-08-25T00:50:18.529Z,17.90
2017-08-25T00:52:45.981Z,17.90
2017-08-25T00:55:13.460Z,17.90
2017-08-25T00:57:40.910Z,17.90
2017-08-25T01:00:08.386Z,17.80
2017-08-25T01:02:35.898Z,17.80
2017-08-25T01:05:03.344Z,17.80
2017-08-25T01:07:30.801Z,17.70
2017-08-25T01:09:59.075Z,17.70
2017-08-25T01:12:26.550Z,17.60
2017-08-25T01:14:53.998Z,17.60
2017-08-25T01:17:21.477Z,17.60
2017-08-25T01:19:48.922Z,17.60
2017-08-25T01:22:16.433Z,17.50
2017-08-25T01:24:43.885Z,17.50
2017-08-25T01:27:11.329Z,17.50
2017-08-25T01:29:38.824Z,17.50
2017-08-25T01:32:06.283Z,17.40
2017-08-25T01:34:33.734Z,17.40
2017-08-25T01:37:01.205Z,17.40
2017-08-25T01:39:28.673Z,17.40
2017-08-25T01:41:56.145Z,17.40
2017-08-25T01:44:23.593Z,17.40
2017-08-25T01:46:51.061Z,17.30
2017-08-25T01:49:18.510Z,17.30
2017-08-25T01:51:45.990Z,17.30
2017-08-25T01:54:13.457Z,17.30
2017-08-25T01:56:40.935Z,17.20
2017-08-25T01:59:08.422Z,17.20
2017-08-25T02:01:35.874Z,17.20
2017-08-25T02:04:03.321Z,17.20
2017-08-25T02:06:30.805Z,17.20
2017-08-25T02:08:58.262Z,17.20
2017-08-25T02:11:25.714Z,17.20
2017-08-25T02:13:53.195Z,17.10
2017-08-25T02:16:20.641Z,17.10
2017-08-25T02:18:48.217Z,17.10
2017-08-25T02:21:15.701Z,17.10
2017-08-25T02:23:43.144Z,17.00
2017-08-25T02:26:10.601Z,17.00
2017-08-25T02:28:38.077Z,17.00
2017-08-25T02:31:05.524Z,16.90
2017-08-25T02:33:32.998Z,16.90
2017-08-25T02:36:00.442Z,16.80
2017-08-25T02:38:27.917Z,16.70
2017-08-25T02:40:55.376Z,16.70
2017-08-25T02:43:22.890Z,16.70
2017-08-25T02:45:50.334Z,16.60
2017-08-25T02:48:17.793Z,16.60
2017-08-25T02:50:45.264Z,16.60
2017-08-25T02:53:12.755Z,16.50
2017-08-25T02:55:40.205Z,16.50
2017-08-25T02:58:07.653Z,16.50
2017-08-25T03:00:35.130Z,16.50
2017-08-25T03:03:02.585Z,16.50
2017-08-25T03:05:30.042Z,16.50
2017-08-25T03:07:57.513Z,16.40
2017-08-25T03:10:25.026Z,16.50
2017-08-25T03:12:52.476Z,16.40
2017-08-25T03:15:19.925Z,16.40
2017-08-25T03:17:47.410Z,16.40
2017-08-25T03:20:14.849Z,16.40
2017-08-25T03:22:42.297Z,16.40
2017-08-25T03:25:09.766Z,16.40
2017-08-25T03:27:37.220Z,16.40
2017-08-25T03:30:04.695Z,16.40
2017-08-25T03:32:32.148Z,16.30
2017-08-25T03:35:00.366Z,16.30
2017-08-25T03:37:27.845Z,16.30
2017-08-25T03:39:55.298Z,16.30
2017-08-25T03:42:22.757Z,16.30
2017-08-25T03:44:50.229Z,16.20
2017-08-25T03:47:17.683Z,16.30
2017-08-25T03:49:45.168Z,16.30
2017-08-25T03:52:13.427Z,16.20
2017-08-25T03:54:40.869Z,16.20
2017-08-25T03:57:08.325Z,16.20
2017-08-25T03:59:35.801Z,16.20
2017-08-25T04:02:04.946Z,16.30
2017-08-25T04:04:32.421Z,16.30
2017-08-25T04:06:59.874Z,16.30
2017-08-25T04:09:27.341Z,16.30
2017-08-25T04:11:54.813Z,16.30
2017-08-25T04:14:22.298Z,16.30
2017-08-25T04:16:50.513Z,16.30
2017-08-25T04:19:18.005Z,16.20
2017-08-25T04:21:45.453Z,16.20
2017-08-25T04:24:12.937Z,16.20
2017-08-25T04:26:40.405Z,16.20
2017-08-25T04:29:07.886Z,16.10
2017-08-25T04:31:35.342Z,16.10
2017-08-25T04:34:02.825Z,16.10
2017-08-25T04:36:30.269Z,16.10
2017-08-25T04:38:57.725Z,16.10
2017-08-25T04:41:25.206Z,16.10
2017-08-25T04:43:52.665Z,16.10
2017-08-25T04:46:20.122Z,16.10
2017-08-25T04:48:47.641Z,16.10
2017-08-25T04:51:15.090Z,16.10
2017-08-25T04:53:42.582Z,16.10
2017-08-25T04:56:10.033Z,16.10
2017-08-25T04:58:37.493Z,16.10
2017-08-25T05:01:04.978Z,16.20
2017-08-25T05:03:32.433Z,16.20
2017-08-25T05:05:59.907Z,16.20
2017-08-25T05:08:27.358Z,16.20
2017-08-25T05:10:54.829Z,16.30
2017-08-25T05:13:22.313Z,16.30
2017-08-25T05:15:49.761Z,16.30
2017-08-25T05:18:17.232Z,16.30
2017-08-25T05:20:44.831Z,16.40
2017-08-25T05:23:12.321Z,16.40
2017-08-25T05:25:39.804Z,16.50
2017-08-25T05:28:07.286Z,16.50
2017-08-25T05:30:35.513Z,16.60
2017-08-25T05:33:02.994Z,16.70
2017-08-25T05:35:30.445Z,16.70
2017-08-25T05:37:57.934Z,16.80
2017-08-25T05:40:25.481Z,16.80
2017-08-25T05:42:52.924Z,16.90
2017-08-25T05:45:20.393Z,16.90
2017-08-25T05:47:47.849Z,17.00
2017-08-25T05:50:16.163Z,17.10
2017-08-25T05:52:43.612Z,17.00
2017-08-25T05:55:11.062Z,17.10
2017-08-25T05:57:38.533Z,17.20
2017-08-25T06:00:05.985Z,17.20
2017-08-25T06:02:33.465Z,17.30
2017-08-25T06:05:00.933Z,17.30
2017-08-25T06:07:28.535Z,17.30
2017-08-25T06:09:56.064Z,17.30
2017-08-25T06:12:23.945Z,17.40
2017-08-25T06:14:51.454Z,17.40
2017-08-25T06:17:18.913Z,17.50
2017-08-25T06:19:46.382Z,17.50
2017-08-25T06:22:13.833Z,17.50
2017-08-25T06:24:41.313Z,17.50
2017-08-25T06:27:08.766Z,17.50
2017-08-25T06:29:36.249Z,17.50
2017-08-25T06:32:03.705Z,17.50
2017-08-25T06:34:31.153Z,17.50
2017-08-25T06:36:58.637Z,17.50
2017-08-25T06:39:26.091Z,17.50
2017-08-25T06:41:53.577Z,17.60
2017-08-25T06:44:21.055Z,17.60
2017-08-25T06:46:48.505Z,17.60
2017-08-25T06:49:15.980Z,17.70
2017-08-25T06:51:43.449Z,17.80
2017-08-25T06:54:10.921Z,18.00
2017-08-25T06:56:38.409Z,18.20
2017-08-25T06:59:05.866Z,18.40
2017-08-25T07:01:33.309Z,18.50
2017-08-25T07:04:00.781Z,18.70
2017-08-25T07:06:28.274Z,18.80
2017-08-25T07:08:55.785Z,18.90
2017-08-25T07:11:23.247Z,18.90
2017-08-25T07:13:50.725Z,19.00
2017-08-25T07:16:18.179Z,19.00
2017-08-25T07:18:45.671Z,19.10
2017-08-25T07:21:13.122Z,19.20
2017-08-25T07:23:40.574Z,19.30
2017-08-25T07:26:08.057Z,19.20
2017-08-25T07:28:35.509Z,19.20
2017-08-25T07:31:02.959Z,19.30
2017-08-25T07:33:30.454Z,19.30
2017-08-25T07:35:57.902Z,19.30
2017-08-25T07:38:25.350Z,19.40
2017-08-25T07:40:52.817Z,19.40
2017-08-25T07:43:20.268Z,19.40
2017-08-25T07:45:47.742Z,19.50
2017-08-25T07:48:15.191Z,19.60
2017-08-25T07:50:42.678Z,19.60
2017-08-25T07:53:10.121Z,19.70
2017-08-25T07:55:37.570Z,19.70
2017-08-25T07:58:05.046Z,19.70
2017-08-25T08:00:32.530Z,19.80
2017-08-25T08:03:00.002Z,19.90
2017-08-25T08:05:27.491Z,19.90
2017-08-25T08:07:54.941Z,20.00
2017-08-25T08:10:22.395Z,20.00
2017-08-25T08:12:49.871Z,20.10
2017-08-25T08:15:17.313Z,20.20
2017-08-25T08:17:44.756Z,20.20
2017-08-25T08:20:12.229Z,20.30
2017-08-25T08:22:39.677Z,20.30
2017-08-25T08:25:07.144Z,20.40
2017-08-25T08:27:34.627Z,20.40
2017-08-25T08:30:02.117Z,20.50
2017-08-25T08:32:29.566Z,20.50
2017-08-25T08:34:57.037Z,20.60
2017-08-25T08:37:24.494Z,20.50
2017-08-25T08:39:51.934Z,20.50
2017-08-25T08:42:19.405Z,20.50
2017-08-25T08:44:46.890Z,20.50
2017-08-25T08:47:14.337Z,20.50
2017-08-25T08:49:41.782Z,20.50
2017-08-25T08:52:09.277Z,20.60
2017-08-25T08:54:36.721Z,20.60
2017-08-25T08:57:04.166Z,20.70
2017-08-25T08:59:31.644Z,20.80
2017-08-25T09:01:59.094Z,20.80
2017-08-25T09:04:26.546Z,20.90
2017-08-25T09:06:54.020Z,20.90
2017-08-25T09:09:21.469Z,20.90
2017-08-25T09:11:48.913Z,21.00
2017-08-25T09:14:16.410Z,21.10
2017-08-25T09:16:43.862Z,21.20
2017-08-25T09:19:11.309Z,21.20
2017-08-25T09:21:38.781Z,21.30
2017-08-25T09:24:06.229Z,21.30
2017-08-25T09:26:33.694Z,21.40
2017-08-25T09:29:01.141Z,21.50
2017-08-25T09:31:28.700Z,21.60
2017-08-25T09:33:56.353Z,21.60
2017-08-25T09:36:23.826Z,21.70
2017-08-25T09:38:51.302Z,21.80
2017-08-25T09:41:18.754Z,21.80
2017-08-25T09:43:46.229Z,21.90
2017-08-25T09:46:13.681Z,21.90
2017-08-25T09:48:41.157Z,22.00
2017-08-25T09:51:08.613Z,22.00
2017-08-25T09:53:36.065Z,22.00
2017-08-25T09:56:03.555Z,22.10
2017-08-25T09:58:31.001Z,22.10
2017-08-25T10:00:58.449Z,22.20
2017-08-25T10:03:25.922Z,22.20
2017-08-25T10:05:53.407Z,22.40
2017-08-25T10:08:20.859Z,22.50
2017-08-25T10:10:48.329Z,22.70
2017-08-25T10:13:15.782Z,22.80
2017-08-25T10:15:43.258Z,22.90
2017-08-25T10:18:10.740Z,23.00
2017-08-25T10:20:38.185Z,23.00
2017-08-25T10:23:05.647Z,23.00
2017-08-25T10:25:33.208Z,23.10
2017-08-25T10:28:00.677Z,23.10
2017-08-25T10:30:28.124Z,23.20
2017-08-25T10:32:55.603Z,23.20
2017-08-25T10:35:34.913Z,23.30
2017-08-25T10:38:14.001Z,23.50
2017-08-25T10:40:53.270Z,23.50
2017-08-25T10:43:32.493Z,23.60
2017-08-25T10:46:00.054Z,23.60
2017-08-25T10:48:27.504Z,23.70
2017-08-25T10:50:54.986Z,23.80
2017-08-25T10:53:22.442Z,23.80
2017-08-25T10:55:49.930Z,23.90
2017-08-25T10:58:17.377Z,24.00
2017-08-25T11:00:44.832Z,24.10
2017-08-25T11:03:13.078Z,24.30
2017-08-25T11:05:40.558Z,24.20
2017-08-25T11:08:08.010Z,24.40
2017-08-25T11:10:35.453Z,24.50
2017-08-25T11:13:02.925Z,24.60
2017-08-25T11:15:30.369Z,24.60
2017-08-25T11:17:57.842Z,24.70
2017-08-25T11:20:25.289Z,24.70
2017-08-25T11:22:52.764Z,24.70
2017-08-25T11:25:20.209Z,24.80
2017-08-25T11:27:47.693Z,24.90
2017-08-25T11:30:15.150Z,25.00
2017-08-25T11:32:42.607Z,25.00
2017-08-25T11:35:10.092Z,25.10
2017-08-25T11:37:37.545Z,25.10
2017-08-25T11:40:04.994Z,25.10
2017-08-25T11:42:32.485Z,25.10
2017-08-25T11:44:59.934Z,25.20
2017-08-25T11:47:27.387Z,25.30
2017-08-25T11:49:54.992Z,25.40
2017-08-25T11:52:22.477Z,25.50
2017-08-25T11:54:49.922Z,25.60
2017-08-25T11:57:17.373Z,25.80
2017-08-25T11:59:44.845Z,25.90
2017-08-25T12:02:12.289Z,26.00
2017-08-25T12:04:39.758Z,26.00
2017-08-25T12:07:08.130Z,26.00
2017-08-25T12:09:35.609Z,26.00
2017-08-25T12:12:03.062Z,26.20
2017-08-25T12:14:30.518Z,26.40
2017-08-25T12:16:58.001Z,26.60
2017-08-25T12:19:25.453Z,26.60
2017-08-25T12:21:53.669Z,26.70
2017-08-25T12:24:21.137Z,26.70
2017-08-25T12:26:48.614Z,26.70
2017-08-25T12:29:16.097Z,26.70
2017-08-25T12:31:43.576Z,26.90
2017-08-25T12:34:11.030Z,27.10
2017-08-25T12:36:38.479Z,27.30
2017-08-25T12:39:05.964Z,27.40
2017-08-25T12:41:33.418Z,27.50
2017-08-25T12:44:00.866Z,27.70
2017-08-25T12:46:29.101Z,27.90
2017-08-25T12:48:56.585Z,27.90
2017-08-25T12:51:24.806Z,28.10
2017-08-25T12:53:52.257Z,28.10
2017-08-25T12:56:19.741Z,28.20
2017-08-25T12:58:47.234Z,28.20
2017-08-25T13:01:15.450Z,28.50
2017-08-25T13:03:43.701Z,28.60
2017-08-25T13:06:11.155Z,28.60
2017-08-25T13:08:38.605Z,28.80
2017-08-25T13:11:06.089Z,28.90
2017-08-25T13:13:35.006Z,29.00
2017-08-25T13:16:02.470Z,29.00
2017-08-25T13:18:29.913Z,29.00
2017-08-25T13:20:57.389Z,29.10
2017-08-25T13:23:24.875Z,29.20
2017-08-25T13:25:52.389Z,29.30
2017-08-25T13:28:19.825Z,29.40
2017-08-25T13:30:47.264Z,29.60
2017-08-25T13:33:15.521Z,29.90
2017-08-25T13:35:42.969Z,29.90
2017-08-25T13:38:10.417Z,30.00
2017-08-25T13:40:37.903Z,30.20
2017-08-25T13:43:05.349Z,30.20
2017-08-25T13:45:32.801Z,30.00
2017-08-25T13:48:00.294Z,29.90
2017-08-25T13:50:27.740Z,29.90
2017-08-25T13:52:55.486Z,30.40
2017-08-25T13:55:22.962Z,30.90
2017-08-25T13:57:50.433Z,31.60
2017-08-25T14:00:17.915Z,32.40
2017-08-25T14:02:45.362Z,33.50
2017-08-25T14:05:12.805Z,34.60
2017-08-25T14:07:40.301Z,35.50
2017-08-25T14:10:07.752Z,35.50
2017-08-25T14:12:35.206Z,35.00
2017-08-25T14:15:02.675Z,34.50
2017-08-25T14:17:30.125Z,34.00
2017-08-25T14:19:57.634Z,33.50
2017-08-25T14:22:25.109Z,33.00
2017-08-25T14:24:53.330Z,32.60
2017-08-25T14:27:20.850Z,32.60
2017-08-25T14:29:48.340Z,32.20
2017-08-25T14:32:15.853Z,31.70
2017-08-25T14:34:43.849Z,31.30
2017-08-25T14:37:11.338Z,31.00
2017-08-25T14:39:39.290Z,31.20
2017-08-25T14:42:06.822Z,31.40
2017-08-25T14:44:34.302Z,31.30
2017-08-25T14:47:01.744Z,31.10
2017-08-25T14:49:29.222Z,30.90
2017-08-25T14:51:56.670Z,31.20
2017-08-25T14:54:24.150Z,31.30
2017-08-25T14:56:51.621Z,31.10
2017-08-25T14:59:19.077Z,31.00
2017-08-25T15:01:46.549Z,31.20
2017-08-25T15:04:14.000Z,31.60
2017-08-25T15:06:41.465Z,32.00
2017-08-25T15:09:08.918Z,32.30
2017-08-25T15:11:36.407Z,32.90
2017-08-25T15:14:03.854Z,33.10
2017-08-25T15:16:31.304Z,33.10
2017-08-25T15:18:58.839Z,33.00
2017-08-25T15:21:26.335Z,32.90
2017-08-25T15:23:53.806Z,32.80
2017-08-25T15:26:21.277Z,32.60
2017-08-25T15:28:48.737Z,32.40
2017-08-25T15:31:16.216Z,32.40
2017-08-25T15:33:43.666Z,32.60
2017-08-25T15:36:11.104Z,32.80
2017-08-25T15:38:38.665Z,33.90
2017-08-25T15:41:06.128Z,34.50
2017-08-25T15:43:33.572Z,34.50
2017-08-25T15:46:01.060Z,33.90
2017-08-25T15:48:28.505Z,33.50
2017-08-25T15:50:55.958Z,33.20
2017-08-25T15:53:24.201Z,33.20
2017-08-25T15:55:51.695Z,33.10
2017-08-25T15:58:19.172Z,33.30
2017-08-25T16:00:46.636Z,33.40
2017-08-25T16:03:14.142Z,33.30
2017-08-25T16:05:41.601Z,33.30
2017-08-25T16:08:09.077Z,33.60
2017-08-25T16:10:36.586Z,33.80
2017-08-25T16:13:04.065Z,33.70
2017-08-25T16:15:31.649Z,33.40
2017-08-25T16:17:59.116Z,32.90
2017-08-25T16:20:26.602Z,32.40
2017-08-25T16:22:54.111Z,32.00
2017-08-25T16:25:21.586Z,31.80
2017-08-25T16:27:49.089Z,31.60
2017-08-25T16:30:16.538Z,31.30
2017-08-25T16:32:43.999Z,31.10
2017-08-25T16:35:11.464Z,31.00
2017-08-25T16:37:38.941Z,30.80
2017-08-25T16:40:06.389Z,30.50
2017-08-25T16:42:33.869Z,30.20
2017-08-25T16:45:01.321Z,29.80
2017-08-25T16:47:28.804Z,29.40
2017-08-25T16:49:56.273Z,29.10
2017-08-25T16:52:23.724Z,28.80
2017-08-25T16:54:51.206Z,28.50
2017-08-25T16:57:18.666Z,28.30
2017-08-25T16:59:46.118Z,28.10
2017-08-25T17:02:13.600Z,28.00
2017-08-25T17:07:14.999Z,27.80
2017-08-25T17:09:42.581Z,27.80
2017-08-25T17:12:10.245Z,27.70
2017-08-25T17:14:37.737Z,27.70
2017-08-25T17:17:05.186Z,27.60
2017-08-25T17:19:32.647Z,27.50
2017-08-25T17:22:00.133Z,27.50
2017-08-25T17:24:27.593Z,27.40
2017-08-25T17:26:55.074Z,27.40
2017-08-25T17:29:22.530Z,27.30
2017-08-25T17:31:50.006Z,27.30
2017-08-25T17:34:17.453Z,27.20
2017-08-25T17:36:44.902Z,27.20
2017-08-25T17:39:12.406Z,27.10
2017-08-25T17:41:40.729Z,27.00
2017-08-25T17:44:08.202Z,26.90
2017-08-25T17:46:35.645Z,26.90
2017-08-25T17:49:03.121Z,26.80
2017-08-25T17:51:30.593Z,26.80
2017-08-25T17:53:58.088Z,26.70
2017-08-25T17:56:25.596Z,26.60
2017-08-25T17:58:53.053Z,26.50
2017-08-25T18:01:20.506Z,26.50
2017-08-25T18:03:47.985Z,26.40
2017-08-25T18:06:16.198Z,26.10
2017-08-25T18:08:43.717Z,26.10
2017-08-25T18:11:11.218Z,26.00
2017-08-25T18:13:38.947Z,25.90
2017-08-25T18:16:06.528Z,25.80
2017-08-25T18:18:34.093Z,25.70
2017-08-25T18:21:01.601Z,25.70
2017-08-25T18:23:29.130Z,25.60
2017-08-25T18:25:56.637Z,25.60
2017-08-25T18:28:24.081Z,25.50
2017-08-25T18:30:51.550Z,25.40
2017-08-25T18:33:19.001Z,25.40
2017-08-25T18:35:46.464Z,25.20
2017-08-25T18:38:13.918Z,25.10
2017-08-25T18:40:41.429Z,25.10
2017-08-25T18:43:08.873Z,25.00
2017-08-25T18:45:36.329Z,24.90
2017-08-25T18:48:03.789Z,24.80
2017-08-25T18:50:31.405Z,24.70
2017-08-25T18:52:58.903Z,24.60
2017-08-25T18:55:27.100Z,24.50
2017-08-25T18:57:54.544Z,24.50
2017-08-25T19:00:22.057Z,24.40
2017-08-25T19:02:49.514Z,24.30
2017-08-25T19:05:16.982Z,24.30
2017-08-25T19:07:44.437Z,24.30
2017-08-25T19:10:11.930Z,24.20
2017-08-25T19:12:39.372Z,24.10
2017-08-25T19:15:06.862Z,24.10
2017-08-25T19:17:34.334Z,24.00
2017-08-25T19:20:01.806Z,24.00
2017-08-25T19:22:29.286Z,24.00
2017-08-25T19:24:56.734Z,23.90
2017-08-25T19:27:24.210Z,23.80
2017-08-25T19:29:51.691Z,23.80
2017-08-25T19:32:19.162Z,23.70
2017-08-25T19:34:46.630Z,23.60
2017-08-25T19:37:14.109Z,23.60
2017-08-25T19:39:41.597Z,23.50
2017-08-25T19:42:09.049Z,23.50
2017-08-25T19:44:36.492Z,23.40
2017-08-25T19:47:03.965Z,23.40
2017-08-25T19:49:31.450Z,23.40
2017-08-25T19:51:59.662Z,23.30
2017-08-25T19:54:27.117Z,23.30
2017-08-25T19:56:54.613Z,23.30
2017-08-25T19:59:22.062Z,23.30
2017-08-25T20:01:49.513Z,23.30
2017-08-25T20:04:17.005Z,23.30
2017-08-25T20:06:44.458Z,23.30
2017-08-25T20:09:11.914Z,23.30
2017-08-25T20:11:39.382Z,23.20
2017-08-25T20:14:07.625Z,23.20
2017-08-25T20:16:35.128Z,23.20
2017-08-25T20:19:02.581Z,23.20
2017-08-25T20:21:30.021Z,23.20
2017-08-25T20:23:57.509Z,23.30
2017-08-25T20:26:25.343Z,23.30
2017-08-25T20:28:52.821Z,23.30
2017-08-25T20:31:20.303Z,23.30
2017-08-25T20:39:42.154Z,23.20
2017-08-25T20:42:09.604Z,22.90
2017-08-25T20:44:37.115Z,22.80
2017-08-25T20:47:04.594Z,22.80
2017-08-25T20:49:32.077Z,22.80
2017-08-25T20:51:59.534Z,22.80
2017-08-25T20:54:27.027Z,22.80
2017-08-25T20:56:54.477Z,22.80
2017-08-25T20:59:21.922Z,22.70
2017-08-25T21:01:50.183Z,22.60
2017-08-25T21:04:17.661Z,22.60
2017-08-25T21:06:45.109Z,22.50
2017-08-25T21:09:12.562Z,22.40
2017-08-25T21:11:40.034Z,22.40
2017-08-25T21:14:07.650Z,22.30
2017-08-25T21:16:35.097Z,22.30
2017-08-25T21:19:02.570Z,22.30
2017-08-25T21:21:30.056Z,22.20
2017-08-25T21:23:57.513Z,22.20
2017-08-25T21:26:24.962Z,22.20
2017-08-25T21:28:52.569Z,22.10
2017-08-25T21:31:20.049Z,22.10
2017-08-25T21:33:47.505Z,22.10
2017-08-25T21:36:15.073Z,22.10
2017-08-25T21:38:42.554Z,22.10
2017-08-25T21:41:10.037Z,22.10
2017-08-25T21:43:37.512Z,22.00
2017-08-25T21:46:04.982Z,22.00
2017-08-25T21:48:32.457Z,21.90
2017-08-25T21:51:00.004Z,21.90
2017-08-25T21:53:27.570Z,21.80
2017-08-25T21:55:55.040Z,21.70
2017-08-25T21:58:22.519Z,21.60
2017-08-25T22:00:49.976Z,21.60
2017-08-25T22:03:17.458Z,21.50
2017-08-25T22:05:44.905Z,21.50
2017-08-25T22:08:12.381Z,21.40
2017-08-25T22:10:39.838Z,21.30
2017-08-25T22:13:07.290Z,21.30
2017-08-25T22:15:34.778Z,21.30
2017-08-25T22:18:02.242Z,21.30
2017-08-25T22:20:29.746Z,21.30
2017-08-25T22:22:57.198Z,21.20
2017-08-25T22:25:24.685Z,21.20
2017-08-25T22:27:52.901Z,21.10
2017-08-25T22:30:20.357Z,21.10
2017-08-25T22:32:47.846Z,21.10
2017-08-25T22:35:15.329Z,21.10
2017-08-25T22:37:42.805Z,21.10
2017-08-25T22:40:10.326Z,21.00
2017-08-25T22:42:37.816Z,21.00
2017-08-25T22:45:05.326Z,20.90
2017-08-25T22:47:32.826Z,20.90
2017-08-25T22:50:00.285Z,20.80
2017-08-25T22:52:27.740Z,20.80
2017-08-25T22:54:55.228Z,20.70
2017-08-25T22:57:22.691Z,20.70
2017-08-25T22:59:50.152Z,20.60
2017-08-25T23:02:17.640Z,20.60
2017-08-25T23:04:45.090Z,20.50
2017-08-25T23:07:13.746Z,20.40
2017-08-25T23:09:41.287Z,20.30
2017-08-25T23:12:08.754Z,20.30
2017-08-25T23:14:36.210Z,20.30
2017-08-25T23:17:03.688Z,20.30
2017-08-25T23:19:31.173Z,20.30
2017-08-25T23:21:58.629Z,20.30
2017-08-25T23:24:26.110Z,20.20
2017-08-25T23:26:53.642Z,20.20
2017-08-25T23:29:21.101Z,20.20
2017-08-25T23:31:48.557Z,20.10
2017-08-25T23:34:16.074Z,20.10
2017-08-25T23:36:43.525Z,20.10
2017-08-25T23:39:11.100Z,20.00
2017-08-25T23:41:38.553Z,20.00
2017-08-25T23:44:06.006Z,19.90
2017-08-25T23:46:34.385Z,19.80
2017-08-25T23:49:01.856Z,19.80
2017-08-25T23:51:29.325Z,19.70
2017-08-25T23:53:56.781Z,19.70
2017-08-25T23:56:24.257Z,19.60
2017-08-25T23:58:51.710Z,19.60
